Terminal Aerodrome Forecast
Issued by NWS

Home | Current Version | Previous Version | Text Only | Print | Product List | Glossary On
Versions: 1 2 3 4 5 6 7 8 9 10 11 12 13 14 15 16
000
FTUS46 KHNX 260524
TAFBFL
TAF
KBFL 260524Z 2606/2706 VRB03KT 6SM HZ SKC
     FM260900 10003KT 4SM BR SKC
     FM261500 00000KT 2SM BR SKC
     FM262000 VRB03KT 4SM HZ SKC=

USA.gov is the U.S. government's official web portal to all federal, state and local government web resources and services.